createdAt,value
2022-07-27T00:01:50.830Z,66.46
2022-07-27T00:04:21.695Z,66.25
2022-07-27T00:06:48.989Z,65.47
2022-07-27T00:09:16.300Z,64.81
2022-07-27T00:11:43.228Z,63.87
2022-07-27T00:14:10.183Z,63.56
2022-07-27T00:16:37.444Z,65.56
2022-07-27T00:19:04.558Z,65.52
2022-07-27T00:21:42.402Z,65.48
2022-07-27T00:24:12.470Z,65.91
2022-07-27T00:26:39.263Z,66.62
2022-07-27T00:29:06.204Z,67.46
2022-07-27T00:31:33.184Z,68.13
2022-07-27T00:34:00.388Z,67.50
2022-07-27T00:36:27.242Z,67.28
2022-07-27T00:38:54.063Z,67.20
2022-07-27T00:41:20.857Z,66.49
2022-07-27T00:44:00.959Z,67.94
2022-07-27T00:46:29.257Z,69.48
2022-07-27T00:48:56.211Z,69.14
2022-07-27T00:51:23.691Z,69.85
2022-07-27T00:53:53.206Z,69.27
2022-07-27T00:56:20.751Z,69.15
2022-07-27T00:58:50.600Z,68.79
2022-07-27T01:01:21.684Z,69.51
2022-07-27T01:03:48.611Z,69.44
2022-07-27T01:06:16.603Z,68.62
2022-07-27T01:08:53.768Z,68.34
2022-07-27T01:11:20.794Z,68.92
2022-07-27T01:13:47.639Z,70.78
2022-07-27T01:16:14.674Z,72.05
2022-07-27T01:18:43.381Z,71.78
2022-07-27T01:21:10.373Z,72.14
2022-07-27T01:23:37.291Z,71.50
2022-07-27T01:26:05.844Z,72.89
2022-07-27T01:28:33.827Z,74.88
2022-07-27T01:31:00.806Z,75.19
2022-07-27T01:33:27.628Z,77.34
2022-07-27T01:35:57.568Z,79.14
2022-07-27T01:38:24.601Z,79.00
2022-07-27T01:40:54.031Z,77.35
2022-07-27T01:43:21.472Z,76.38
2022-07-27T01:45:49.465Z,77.42
2022-07-27T01:48:16.299Z,78.26
2022-07-27T01:50:43.664Z,77.96
2022-07-27T01:53:14.523Z,77.96
2022-07-27T01:55:41.363Z,78.17
2022-07-27T01:58:09.398Z,78.17
2022-07-27T02:00:37.069Z,76.64
2022-07-27T02:03:06.357Z,76.61
2022-07-27T02:05:33.442Z,76.54
2022-07-27T02:08:00.468Z,76.72
2022-07-27T02:10:27.485Z,77.07
2022-07-27T02:12:54.282Z,78.84
2022-07-27T02:15:25.916Z,78.73
2022-07-27T02:17:54.332Z,78.26
2022-07-27T02:20:24.372Z,78.08
2022-07-27T02:22:51.836Z,76.88
2022-07-27T02:25:19.731Z,76.88
2022-07-27T02:27:47.229Z,76.15
2022-07-27T02:30:14.846Z,77.34
2022-07-27T02:32:45.117Z,78.55
2022-07-27T02:35:19.224Z,77.78
2022-07-27T02:37:48.356Z,76.96
2022-07-27T02:40:17.690Z,76.96
2022-07-27T02:42:47.045Z,76.86
2022-07-27T02:45:15.650Z,76.64
2022-07-27T02:47:44.108Z,77.14
2022-07-27T02:50:11.219Z,77.17
2022-07-27T02:52:38.365Z,76.91
2022-07-27T02:55:06.678Z,76.33
2022-07-27T02:57:36.098Z,76.76
2022-07-27T03:00:06.051Z,78.57
2022-07-27T03:02:32.928Z,78.33
2022-07-27T03:04:59.780Z,79.13
2022-07-27T03:07:26.731Z,78.42
2022-07-27T03:09:53.976Z,78.03
2022-07-27T03:12:20.844Z,77.46
2022-07-27T03:14:47.657Z,77.26
2022-07-27T03:17:14.443Z,77.79
2022-07-27T03:19:41.565Z,78.12
2022-07-27T03:22:08.453Z,78.54
2022-07-27T03:24:35.255Z,80.05
2022-07-27T03:27:02.406Z,79.94
2022-07-27T03:29:29.602Z,79.72
2022-07-27T03:31:57.026Z,78.83
2022-07-27T03:34:23.932Z,79.13
2022-07-27T03:36:50.898Z,79.28
2022-07-27T03:39:18.396Z,79.01
2022-07-27T03:41:45.554Z,78.95
2022-07-27T03:44:12.418Z,79.50
2022-07-27T03:46:39.591Z,80.19
2022-07-27T03:49:14.677Z,80.80
2022-07-27T03:51:43.245Z,81.27
2022-07-27T03:54:10.619Z,80.92
2022-07-27T03:56:37.423Z,80.90
2022-07-27T03:59:05.013Z,79.84
2022-07-27T04:01:31.979Z,79.59
2022-07-27T04:03:58.834Z,79.36
2022-07-27T04:06:26.991Z,79.40
2022-07-27T04:08:59.415Z,79.08
2022-07-27T04:11:34.728Z,78.64
2022-07-27T04:14:07.251Z,79.01
2022-07-27T04:16:43.343Z,79.51
2022-07-27T04:19:10.486Z,79.02
2022-07-27T04:21:38.081Z,78.92
2022-07-27T04:24:05.777Z,78.84
2022-07-27T04:26:32.761Z,79.06
2022-07-27T04:28:59.548Z,80.21
2022-07-27T04:31:26.376Z,80.40
2022-07-27T04:33:53.183Z,79.89
2022-07-27T04:36:20.017Z,79.20
2022-07-27T04:38:47.390Z,78.90
2022-07-27T04:41:14.252Z,79.24
2022-07-27T04:43:41.064Z,78.73
2022-07-27T04:46:13.174Z,78.88
2022-07-27T04:48:42.213Z,79.13
2022-07-27T04:51:17.807Z,79.86
2022-07-27T04:53:53.432Z,80.43
2022-07-27T04:56:25.454Z,79.49
2022-07-27T04:58:52.262Z,79.43
2022-07-27T05:01:19.177Z,79.18
2022-07-27T05:03:46.169Z,79.61
2022-07-27T05:06:13.019Z,79.73
2022-07-27T05:08:39.861Z,80.64
2022-07-27T05:11:07.556Z,80.17
2022-07-27T05:13:38.354Z,80.11
2022-07-27T05:16:09.375Z,79.65
2022-07-27T05:18:38.613Z,80.17
2022-07-27T05:21:06.797Z,79.84
2022-07-27T05:23:34.829Z,79.42
2022-07-27T05:26:02.159Z,79.25
2022-07-27T05:28:29.438Z,79.90
2022-07-27T05:30:56.758Z,79.74
2022-07-27T05:33:23.994Z,79.55
2022-07-27T05:35:51.251Z,78.18
2022-07-27T05:38:24.434Z,78.23
2022-07-27T05:40:55.810Z,78.06
2022-07-27T05:43:22.633Z,78.85
2022-07-27T05:45:49.646Z,78.28
2022-07-27T05:48:16.600Z,78.05
2022-07-27T05:50:43.869Z,77.44
2022-07-27T05:53:25.072Z,77.65
2022-07-27T05:55:58.366Z,76.89
2022-07-27T05:58:28.151Z,76.13
2022-07-27T06:00:55.123Z,75.63
2022-07-27T06:03:22.901Z,76.25
2022-07-27T06:05:50.410Z,75.68
2022-07-27T06:08:17.335Z,75.22
2022-07-27T06:10:44.358Z,75.19
2022-07-27T06:13:14.527Z,74.17
2022-07-27T06:15:41.473Z,74.17
2022-07-27T06:18:15.047Z,73.51
2022-07-27T06:20:43.291Z,70.33
2022-07-27T06:23:11.167Z,70.02
2022-07-27T06:25:38.083Z,68.40
2022-07-27T06:28:06.100Z,67.67
2022-07-27T06:30:33.556Z,67.48
2022-07-27T06:33:00.956Z,66.57
2022-07-27T06:35:27.859Z,65.73
2022-07-27T06:37:54.986Z,65.27
2022-07-27T06:40:22.232Z,64.62
2022-07-27T06:42:49.442Z,64.68
2022-07-27T06:45:16.806Z,64.46
2022-07-27T06:47:48.980Z,64.15
2022-07-27T06:50:18.734Z,63.55
2022-07-27T06:52:45.572Z,62.90
2022-07-27T06:55:13.249Z,62.88
2022-07-27T06:57:40.360Z,62.38
2022-07-27T07:00:08.348Z,62.09
2022-07-27T07:02:35.301Z,61.10
2022-07-27T07:05:02.062Z,61.25
2022-07-27T07:07:28.918Z,60.72
2022-07-27T07:09:55.717Z,60.83
2022-07-27T07:12:22.800Z,60.48
2022-07-27T07:14:49.682Z,59.46
2022-07-27T07:17:16.534Z,59.26
2022-07-27T07:19:43.457Z,58.63
2022-07-27T07:22:10.303Z,58.19
2022-07-27T07:24:37.361Z,58.04
2022-07-27T07:27:04.375Z,57.77
2022-07-27T07:29:31.279Z,57.82
2022-07-27T07:31:58.221Z,57.69
2022-07-27T07:34:25.067Z,57.86
2022-07-27T07:36:51.867Z,57.83
2022-07-27T07:39:18.646Z,57.03
2022-07-27T07:41:45.534Z,56.66
2022-07-27T07:44:12.359Z,56.37
2022-07-27T07:46:41.569Z,56.15
2022-07-27T07:49:11.422Z,55.04
2022-07-27T07:51:38.515Z,55.71
2022-07-27T07:54:05.327Z,55.89
2022-07-27T07:56:32.155Z,54.78
2022-07-27T07:58:59.389Z,55.21
2022-07-27T08:01:26.459Z,55.09
2022-07-27T08:03:53.286Z,54.66
2022-07-27T08:06:20.131Z,54.03
2022-07-27T08:08:46.922Z,53.92
2022-07-27T08:11:14.128Z,53.49
2022-07-27T08:13:40.917Z,53.77
2022-07-27T08:16:07.818Z,52.76
2022-07-27T08:18:34.638Z,52.83
2022-07-27T08:21:01.447Z,52.11
2022-07-27T08:23:28.328Z,52.02
2022-07-27T08:25:55.210Z,51.25
2022-07-27T08:28:22.102Z,51.54
2022-07-27T08:30:49.200Z,50.90
2022-07-27T08:33:16.709Z,50.27
2022-07-27T08:35:44.554Z,50.63
2022-07-27T08:38:11.899Z,48.82
2022-07-27T08:40:43.594Z,49.32
2022-07-27T08:43:23.415Z,49.15
2022-07-27T08:45:58.391Z,46.38
2022-07-27T08:48:30.857Z,45.01
2022-07-27T08:50:58.239Z,47.18
2022-07-27T08:53:25.554Z,46.97
2022-07-27T08:55:52.753Z,46.97
2022-07-27T08:58:19.726Z,47.25
2022-07-27T09:00:52.183Z,45.94
2022-07-27T09:03:22.076Z,46.30
2022-07-27T09:05:51.542Z,45.41
2022-07-27T09:08:30.282Z,45.66
2022-07-27T09:10:59.895Z,46.07
2022-07-27T09:13:29.533Z,45.58
2022-07-27T09:16:18.798Z,45.43
2022-07-27T09:18:47.703Z,45.34
2022-07-27T09:21:22.861Z,45.63
2022-07-27T09:23:54.500Z,43.44
2022-07-27T09:26:34.765Z,44.59
2022-07-27T09:29:12.168Z,44.12
2022-07-27T09:31:52.358Z,45.00
2022-07-27T09:34:33.462Z,43.49
2022-07-27T09:37:05.762Z,42.79
2022-07-27T09:39:33.003Z,41.06
2022-07-27T09:42:02.770Z,42.67
2022-07-27T09:44:53.472Z,43.63
2022-07-27T09:47:30.586Z,42.85
2022-07-27T09:50:17.719Z,42.15
2022-07-27T09:52:44.868Z,42.29
2022-07-27T09:55:11.771Z,40.99
2022-07-27T09:57:58.958Z,42.14
2022-07-27T10:00:27.483Z,42.54
2022-07-27T10:02:55.427Z,42.73
2022-07-27T10:05:23.190Z,41.91
2022-07-27T10:07:52.360Z,41.51
2022-07-27T10:10:20.252Z,41.08
2022-07-27T10:12:53.996Z,41.22
2022-07-27T10:15:22.391Z,41.35
2022-07-27T10:18:02.169Z,40.03
2022-07-27T10:20:32.403Z,40.49
2022-07-27T10:23:00.161Z,40.17
2022-07-27T10:25:34.300Z,40.34
2022-07-27T10:28:11.983Z,40.17
2022-07-27T10:30:39.509Z,39.38
2022-07-27T10:33:43.681Z,40.10
2022-07-27T10:36:39.377Z,40.18
2022-07-27T10:39:08.221Z,39.40
2022-07-27T10:41:43.899Z,40.08
2022-07-27T10:44:21.519Z,39.07
2022-07-27T10:47:01.951Z,38.71
2022-07-27T10:49:40.252Z,39.37
2022-07-27T10:52:07.334Z,38.77
2022-07-27T10:54:39.843Z,39.20
2022-07-27T10:57:09.361Z,38.22
2022-07-27T11:00:07.599Z,38.45
2022-07-27T11:02:42.847Z,37.88
2022-07-27T11:05:57.931Z,38.66
2022-07-27T11:10:48.701Z,35.35
2022-07-27T11:13:22.579Z,37.06
2022-07-27T11:16:22.811Z,39.18
2022-07-27T11:19:06.082Z,38.84
2022-07-27T11:21:38.564Z,38.95
2022-07-27T11:24:15.147Z,39.54
2022-07-27T11:26:49.504Z,40.15
2022-07-27T11:29:20.258Z,41.31
2022-07-27T11:31:56.589Z,40.87
2022-07-27T11:34:42.273Z,40.15
2022-07-27T11:37:23.170Z,39.53
2022-07-27T11:40:13.909Z,39.10
2022-07-27T11:42:48.031Z,39.48
2022-07-27T11:45:29.772Z,38.91
2022-07-27T11:47:58.218Z,38.71
2022-07-27T11:50:25.076Z,38.00
2022-07-27T11:53:01.776Z,37.69
2022-07-27T11:55:28.976Z,37.78
2022-07-27T11:58:04.558Z,37.86
2022-07-27T12:00:42.111Z,37.38
2022-07-27T12:03:47.275Z,37.04
2022-07-27T12:06:14.719Z,37.48
2022-07-27T12:08:41.554Z,37.58
2022-07-27T12:11:08.342Z,35.89
2022-07-27T12:13:36.400Z,36.36
2022-07-27T12:16:03.376Z,35.73
2022-07-27T12:18:43.638Z,37.04
2022-07-27T12:21:20.450Z,37.39
2022-07-27T12:23:53.461Z,37.83
2022-07-27T12:26:25.496Z,38.35
2022-07-27T12:29:12.494Z,38.46
2022-07-27T12:31:49.109Z,37.43
2022-07-27T12:34:16.271Z,36.79
2022-07-27T12:36:43.556Z,36.58
2022-07-27T12:39:29.930Z,35.97
2022-07-27T12:42:08.141Z,36.04
2022-07-27T12:44:37.957Z,35.91
2022-07-27T12:47:28.005Z,34.80
2022-07-27T12:50:14.471Z,35.02
2022-07-27T12:52:53.463Z,35.36
2022-07-27T12:55:22.488Z,35.95
2022-07-27T12:57:56.031Z,34.89
2022-07-27T13:00:31.027Z,35.41
2022-07-27T13:03:02.091Z,35.96
2022-07-27T13:05:29.271Z,34.95
2022-07-27T13:07:56.682Z,34.20
2022-07-27T13:10:23.712Z,34.77
2022-07-27T13:12:52.007Z,34.60
2022-07-27T13:15:20.498Z,33.89
2022-07-27T13:17:48.115Z,34.22
2022-07-27T13:20:17.236Z,33.85
2022-07-27T13:22:45.732Z,32.77
2022-07-27T13:25:15.442Z,33.18
2022-07-27T13:27:45.441Z,33.32
2022-07-27T13:30:14.274Z,32.43
2022-07-27T13:32:42.327Z,32.88
2022-07-27T13:35:12.481Z,33.42
2022-07-27T13:37:40.204Z,33.70
2022-07-27T13:40:09.974Z,33.96
2022-07-27T13:42:38.059Z,35.09
2022-07-27T13:45:10.457Z,35.97
2022-07-27T13:47:41.988Z,35.65
2022-07-27T13:50:19.671Z,34.58
2022-07-27T13:52:49.804Z,34.05
2022-07-27T13:55:17.995Z,33.99
2022-07-27T13:57:46.876Z,33.56
2022-07-27T14:00:15.626Z,32.71
2022-07-27T14:02:43.333Z,32.83
2022-07-27T14:05:13.070Z,33.13
2022-07-27T14:07:42.466Z,33.19
2022-07-27T14:10:30.480Z,33.45
2022-07-27T14:13:07.741Z,33.48
2022-07-27T14:15:53.519Z,34.15
2022-07-27T14:18:23.065Z,33.41
2022-07-27T14:20:50.008Z,32.52
2022-07-27T14:23:17.117Z,33.09
2022-07-27T14:25:44.142Z,33.52
2022-07-27T14:28:11.069Z,32.82
2022-07-27T14:30:38.128Z,32.42
2022-07-27T14:33:04.911Z,33.13
2022-07-27T14:35:34.604Z,32.62
2022-07-27T14:38:04.495Z,31.75
2022-07-27T14:40:31.314Z,32.68
2022-07-27T14:42:58.111Z,32.47
2022-07-27T14:45:24.968Z,31.99
2022-07-27T14:48:13.237Z,32.64
2022-07-27T14:50:41.810Z,31.58
2022-07-27T14:53:08.936Z,31.35
2022-07-27T14:55:37.314Z,30.61
2022-07-27T14:58:04.144Z,31.01
2022-07-27T15:00:36.154Z,31.46
2022-07-27T15:03:05.798Z,32.02
2022-07-27T15:05:33.465Z,32.50
2022-07-27T15:08:16.646Z,33.58
2022-07-27T15:10:44.159Z,33.59
2022-07-27T15:13:11.014Z,34.20
2022-07-27T15:15:38.092Z,34.98
2022-07-27T15:18:06.262Z,33.98
2022-07-27T15:20:36.879Z,34.78
2022-07-27T15:23:04.256Z,34.29
2022-07-27T15:25:31.098Z,33.92
2022-07-27T15:27:58.126Z,34.09
2022-07-27T15:30:24.961Z,34.39
2022-07-27T15:32:51.760Z,34.15
2022-07-27T15:35:18.691Z,33.90
2022-07-27T15:37:54.334Z,33.71
2022-07-27T15:40:38.502Z,33.64
2022-07-27T15:43:14.645Z,34.60
2022-07-27T15:45:48.414Z,34.89
2022-07-27T15:48:18.231Z,34.46
2022-07-27T15:50:49.257Z,35.33
2022-07-27T15:53:17.057Z,34.84
2022-07-27T15:55:44.984Z,34.64
2022-07-27T15:58:13.567Z,34.40
2022-07-27T16:00:41.703Z,34.97
2022-07-27T16:03:10.931Z,35.30
2022-07-27T16:05:41.269Z,35.61
2022-07-27T16:08:09.988Z,36.11
2022-07-27T16:10:39.003Z,35.67
2022-07-27T16:13:07.462Z,35.95
2022-07-27T16:15:53.518Z,34.86
2022-07-27T16:18:20.434Z,35.69
2022-07-27T16:20:47.307Z,35.11
2022-07-27T16:23:18.148Z,35.86
2022-07-27T16:26:04.511Z,35.44
2022-07-27T16:28:34.644Z,36.18
2022-07-27T16:31:02.810Z,36.31
2022-07-27T16:33:30.384Z,36.35
2022-07-27T16:36:03.160Z,36.04
2022-07-27T16:38:29.992Z,35.35
2022-07-27T16:40:59.860Z,35.17
2022-07-27T16:43:38.018Z,35.32
2022-07-27T16:46:10.835Z,35.20
2022-07-27T16:48:41.710Z,35.67
2022-07-27T16:51:13.792Z,35.95
2022-07-27T16:53:46.429Z,36.52
2022-07-27T16:56:13.262Z,36.74
2022-07-27T16:58:40.926Z,36.39
2022-07-27T17:01:09.194Z,36.71
2022-07-27T17:03:37.706Z,37.20
2022-07-27T17:06:06.772Z,37.22
2022-07-27T17:08:35.961Z,36.94
2022-07-27T17:11:02.947Z,37.00
2022-07-27T17:13:33.914Z,36.88
2022-07-27T17:16:06.336Z,37.55
2022-07-27T17:18:40.266Z,37.24
2022-07-27T17:21:12.825Z,37.65
2022-07-27T17:23:42.086Z,37.66
2022-07-27T17:26:10.035Z,37.65
2022-07-27T17:28:39.638Z,37.83
2022-07-27T17:31:10.530Z,37.44
2022-07-27T17:33:39.175Z,38.01
2022-07-27T17:36:12.301Z,37.39
2022-07-27T17:38:46.200Z,37.92
2022-07-27T17:41:19.208Z,38.47
2022-07-27T17:43:48.713Z,37.89
2022-07-27T17:46:15.810Z,37.82
2022-07-27T17:48:42.733Z,37.65
2022-07-27T17:51:10.722Z,38.25
2022-07-27T17:53:38.210Z,38.72
2022-07-27T17:56:05.782Z,39.18
2022-07-27T17:58:32.717Z,39.14
2022-07-27T18:00:59.641Z,39.24
2022-07-27T18:03:28.192Z,39.41
2022-07-27T18:05:55.167Z,39.27
2022-07-27T18:08:22.044Z,39.29
2022-07-27T18:10:51.127Z,39.60
2022-07-27T18:13:18.139Z,40.11
2022-07-27T18:15:47.745Z,39.79
2022-07-27T18:18:16.622Z,41.15
2022-07-27T18:20:46.332Z,42.01
2022-07-27T18:23:14.260Z,42.26
2022-07-27T18:25:41.171Z,42.28
2022-07-27T18:28:08.055Z,42.58
2022-07-27T18:30:34.947Z,42.42
2022-07-27T18:33:01.988Z,41.83
2022-07-27T18:35:28.871Z,41.25
2022-07-27T18:37:55.708Z,42.48
2022-07-27T18:40:22.744Z,41.93
2022-07-27T18:42:49.581Z,42.86
2022-07-27T18:45:16.498Z,42.63
2022-07-27T18:47:49.282Z,43.10
2022-07-27T18:50:16.834Z,43.55
2022-07-27T18:52:43.733Z,43.65
2022-07-27T18:55:10.866Z,43.89
2022-07-27T18:57:37.659Z,43.49
2022-07-27T19:00:06.439Z,43.36
2022-07-27T19:02:38.753Z,44.13
2022-07-27T19:05:07.475Z,44.86
2022-07-27T19:07:37.356Z,44.67
2022-07-27T19:10:08.025Z,44.30
2022-07-27T19:12:35.175Z,44.09
2022-07-27T19:15:02.026Z,44.07
2022-07-27T19:17:28.799Z,43.97
2022-07-27T19:19:55.569Z,43.87
2022-07-27T19:22:22.407Z,43.97
2022-07-27T19:24:54.674Z,45.49
2022-07-27T19:27:21.976Z,46.17
2022-07-27T19:29:48.950Z,46.32
2022-07-27T19:32:16.940Z,46.75
2022-07-27T19:34:44.103Z,47.11
2022-07-27T19:37:11.638Z,47.35
2022-07-27T19:40:02.102Z,47.25
2022-07-27T19:42:25.291Z,46.84
2022-07-27T19:44:52.060Z,47.01
2022-07-27T19:47:19.046Z,48.07
2022-07-27T19:49:47.192Z,48.41
2022-07-27T19:52:14.055Z,48.06
2022-07-27T19:54:40.849Z,49.45
2022-07-27T19:57:07.910Z,49.91
2022-07-27T19:59:56.023Z,49.92
2022-07-27T20:02:21.859Z,49.99
2022-07-27T20:04:49.133Z,50.65
2022-07-27T20:07:15.978Z,50.28
2022-07-27T20:09:42.766Z,50.31
2022-07-27T20:12:10.940Z,50.73
2022-07-27T20:14:37.919Z,52.87
2022-07-27T20:17:05.953Z,54.24
2022-07-27T20:19:33.603Z,55.49
2022-07-27T20:22:01.267Z,54.74
2022-07-27T20:24:29.499Z,54.61
2022-07-27T20:26:57.330Z,55.10
2022-07-27T20:29:24.142Z,55.16
2022-07-27T20:31:52.273Z,55.98
2022-07-27T20:34:23.524Z,56.55
2022-07-27T20:36:50.573Z,57.65
2022-07-27T20:39:18.002Z,57.82
2022-07-27T20:41:45.675Z,57.90
2022-07-27T20:44:12.759Z,58.86
2022-07-27T20:46:39.582Z,59.54
2022-07-27T20:49:06.398Z,59.68
2022-07-27T20:51:33.331Z,59.53
2022-07-27T20:54:00.921Z,59.63
2022-07-27T20:56:27.726Z,60.49
2022-07-27T20:58:54.546Z,60.85
2022-07-27T21:01:21.722Z,61.18
2022-07-27T21:03:48.563Z,61.16
2022-07-27T21:06:15.454Z,61.00
2022-07-27T21:08:46.436Z,60.65
2022-07-27T21:11:13.822Z,60.05
2022-07-27T21:13:41.111Z,60.42
2022-07-27T21:16:08.197Z,60.21
2022-07-27T21:18:35.813Z,60.99
2022-07-27T21:21:03.062Z,61.62
2022-07-27T21:23:48.638Z,62.36
2022-07-27T21:26:18.190Z,61.86
2022-07-27T21:28:46.061Z,63.20
2022-07-27T21:31:12.881Z,63.12
2022-07-27T21:33:40.261Z,61.69
2022-07-27T21:36:07.819Z,62.14
2022-07-27T21:38:34.922Z,62.68
2022-07-27T21:41:01.829Z,62.27
2022-07-27T21:43:28.622Z,62.62
2022-07-27T21:45:55.515Z,63.65
2022-07-27T21:48:22.904Z,63.46
2022-07-27T21:50:50.011Z,63.04
2022-07-27T21:53:17.311Z,62.80
2022-07-27T21:55:44.074Z,62.67
2022-07-27T21:58:12.443Z,63.15
2022-07-27T22:00:39.651Z,63.35
2022-07-27T22:03:06.790Z,63.34
2022-07-27T22:05:34.357Z,63.15
2022-07-27T22:08:01.958Z,63.14
2022-07-27T22:10:30.502Z,63.88
2022-07-27T22:12:58.603Z,64.45
2022-07-27T22:15:26.039Z,64.69
2022-07-27T22:17:53.141Z,64.53
2022-07-27T22:20:21.242Z,64.16
2022-07-27T22:22:49.317Z,64.47
2022-07-27T22:25:16.480Z,64.75
2022-07-27T22:27:43.337Z,65.82
2022-07-27T22:30:10.420Z,65.55
2022-07-27T22:32:37.426Z,65.61
2022-07-27T22:35:05.165Z,66.51
2022-07-27T22:37:31.957Z,67.04
2022-07-27T22:39:59.231Z,67.20
2022-07-27T22:42:26.005Z,67.61
2022-07-27T22:47:25.135Z,67.87
2022-07-27T22:57:28.462Z,68.07
2022-07-27T23:05:00.161Z,68.53
2022-07-27T23:07:27.035Z,68.15
2022-07-27T23:12:26.136Z,68.03
2022-07-27T23:14:52.918Z,68.11
2022-07-27T23:17:19.720Z,67.91
2022-07-27T23:19:46.494Z,68.28
2022-07-27T23:24:46.111Z,68.18
2022-07-27T23:29:45.296Z,69.00
2022-07-27T23:37:16.222Z,69.08
2022-07-27T23:39:43.058Z,68.88
2022-07-27T23:42:09.820Z,68.71
2022-07-27T23:44:36.583Z,69.07
2022-07-27T23:49:36.279Z,69.08
2022-07-27T23:59:43.218Z,69.73
